KMIA/MIA METAR and TAF weather

Enter ICAO airport designator
Station Type Date Time Source
KMIA METAR 2020/04/04 11:53 UTC NOAA

KMIA 041153Z 29003KT 10SM BKN035 BKN250 23/18 A2996 RMK AO2 SLP145 T02280178 10239 20222 51017


Station Type Date Time Source
KMIA Decoded METAR 2020/04/04 11:53 UTC NOAA

MIAMI INTERNATIONAL AIRPORT , FL, United States (KMIA) 25-47N 080-19W 8M
Apr 04, 2020 - 07:53 AM EDT / 2020.04.04 1153 UTC
Wind: from the WNW (290 degrees) at 3 MPH (3 KT):0
Visibility: 10 mile(s):0
Sky conditions: mostly cloudy
Temperature: 73.0 F (22.8 C)
Dew Point: 64.0 F (17.8 C)
Relative Humidity: 73%
Pressure (altimeter): 29.96 in. Hg (1014 hPa)
Pressure tendency: 0.05 inches (1.7 hPa) higher than three hours ago
ob: KMIA 041153Z 29003KT 10SM BKN035 BKN250 23/18 A2996 RMK AO2 SLP145 T02280178 10239 20222 51017
cycle: 12

Station Type Date Time Source
KMIA TAF 2020/04/04 12:36 UTC NOAA

TAF KMIA 041133Z 0412/0518 VRB03KT P6SM SCT035
FM041600 14010KT P6SM SCT035 BKN050
FM050000 VRB03KT P6SM SCT035 SCT050
FM051600 11009KT P6SM SCT035 BKN050

Example: see airport list